Dilbeek, Belgium
Current Conditions -  °F | °C
As of 3:50 AM on Friday 28 Nov 2014 (Local Time) from EBBR Reporting Station
Clear Clear  
Wind Chill: 43°   Ceiling: Unl
Heat Index: 46°   Visibility: 6mi
Dew Point: 43°   Wind: 7mph
Humidity: 87%   Direction: 110°ESE
Pressure: 29.68"   Gusts: NA
Location:  50.85°N, 4.26°E
Report Text: EBBR 280250Z 11006KT 9000 NSC 08/06 Q1005 NOSIG
Loading
Personal Weather Stations






























Interactive Weather Map New forecast layout! Learn more

10-Day Weather Forecast

Advertisements
Track Severe Weather on mobile